HUZAR14 EPLK-EPLK

Flight info

Callsign HUZAR14
Flight time 0h 15m
Altitude 2000
Route DCT
Aircraft F35/M-SDE3RV/LB1

Departure

Time 2026-05-06 07:30
Airport Łask Air Base (EPLK)

Arrival

Time 2026-05-06 07:45
Airport Łask Air Base (EPLK)
Time Latitude Longitude Altitude Speed Heading
2026-05-06 07:23 51.55671 19.16214 626 ft 0 kts 101°
2026-05-06 07:27 51.55671 19.16215 626 ft 1 kts 101°
2026-05-06 07:27 51.55670 19.16219 632 ft 2 kts 105°
2026-05-06 07:27 51.55642 19.16238 626 ft 10 kts 178°
2026-05-06 07:27 51.55591 19.16239 629 ft 0 kts 179°
2026-05-06 07:28 51.55589 19.16239 629 ft 0 kts 179°
2026-05-06 07:28 51.55442 19.16488 629 ft 76 kts 107°
2026-05-06 07:29 51.55077 19.18377 683 ft 242 kts 110°
2026-05-06 07:29 51.54597 19.20850 987 ft 235 kts 112°
2026-05-06 07:29 51.53482 19.22376 1129 ft 219 kts 185°
2026-05-06 07:29 51.52579 19.20866 1172 ft 219 kts 274°
2026-05-06 07:30 51.52934 19.18434 1023 ft 223 kts 284°
2026-05-06 07:30 51.52926 19.16276 1297 ft 210 kts 207°
2026-05-06 07:30 51.51799 19.17312 1651 ft 239 kts 93°
2026-05-06 07:30 51.52926 19.18848 1397 ft 242 kts 342°
2026-05-06 07:31 51.53581 19.16898 1667 ft 213 kts 239°
2026-05-06 07:31 51.52356 19.16835 1665 ft 230 kts 124°
2026-05-06 07:31 51.52851 19.18989 1856 ft 242 kts 12°
2026-05-06 07:31 51.53858 19.17615 1457 ft 219 kts 253°
2026-05-06 07:32 51.52695 19.16676 1472 ft 216 kts 153°
2026-05-06 07:32 51.52494 19.18853 1704 ft 239 kts 36°
2026-05-06 07:32 51.53680 19.18010 1406 ft 201 kts 287°
2026-05-06 07:32 51.54170 19.15779 1511 ft 227 kts 284°
2026-05-06 07:33 51.54621 19.13546 1541 ft 189 kts 283°
2026-05-06 07:33 51.55317 19.12080 1405 ft 166 kts 352°
2026-05-06 07:33 51.56130 19.13115 1205 ft 165 kts 95°
2026-05-06 07:33 51.55765 19.15018 845 ft 204 kts 115°
2026-05-06 07:34 51.55349 19.16928 629 ft 160 kts 110°
2026-05-06 07:34 51.54899 19.19177 765 ft 264 kts 108°
2026-05-06 07:34 51.54317 19.22016 1241 ft 205 kts 131°
2026-05-06 07:34 51.53021 19.22183 1335 ft 211 kts 230°
2026-05-06 07:35 51.52801 19.19831 1052 ft 223 kts 282°
2026-05-06 07:35 51.53515 19.17691 1367 ft 211 kts 261°
2026-05-06 07:35 51.52450 19.16871 1500 ft 221 kts 142°
2026-05-06 07:35 51.52635 19.19106 1532 ft 241 kts 26°
2026-05-06 07:36 51.53910 19.18220 1429 ft 219 kts 276°
2026-05-06 07:36 51.53090 19.16614 1627 ft 213 kts 177°
2026-05-06 07:36 51.52177 19.18346 2002 ft 241 kts 81°
2026-05-06 07:36 51.53253 19.18361 1667 ft 236 kts 289°
2026-05-06 07:37 51.53806 19.16002 1646 ft 225 kts 284°
2026-05-06 07:37 51.54185 19.13593 1596 ft 222 kts 276°
2026-05-06 07:37 51.54590 19.11215 1564 ft 216 kts 290°
2026-05-06 07:37 51.55793 19.09799 2022 ft 240 kts 354°
2026-05-06 07:38 51.56735 19.11285 2069 ft 204 kts 122°
2026-05-06 07:38 51.56028 19.13443 1283 ft 217 kts 119°
2026-05-06 07:38 51.55612 19.15543 753 ft 178 kts 109°
2026-05-06 07:38 51.55300 19.17177 634 ft 162 kts 108°
2026-05-06 07:39 51.54774 19.19886 1009 ft 305 kts 111°
2026-05-06 07:39 51.54524 19.22701 1362 ft 236 kts 75°
2026-05-06 07:39 51.55778 19.24239 1726 ft 247 kts 353°
2026-05-06 07:39 51.56907 19.22644 1698 ft 230 kts 290°
2026-05-06 07:40 51.57468 19.20281 1999 ft 220 kts 284°
2026-05-06 07:40 51.57858 19.17914 2273 ft 217 kts 275°
2026-05-06 07:40 51.58011 19.15491 2303 ft 217 kts 264°
2026-05-06 07:40 51.57426 19.13354 2123 ft 209 kts 220°
2026-05-06 07:41 51.56071 19.13114 1329 ft 199 kts 143°
2026-05-06 07:41 51.55694 19.15032 766 ft 207 kts 105°
2026-05-06 07:41 51.55249 19.17593 1074 ft 244 kts 110°
2026-05-06 07:41 51.54819 19.19967 1321 ft 243 kts 111°
2026-05-06 07:42 51.55091 19.22394 1820 ft 244 kts 34°
2026-05-06 07:42 51.56548 19.21933 2014 ft 233 kts 297°
2026-05-06 07:42 51.57001 19.19547 2019 ft 223 kts 276°
2026-05-06 07:42 51.57369 19.17141 1790 ft 219 kts 278°
2026-05-06 07:43 51.57337 19.14756 1670 ft 212 kts 245°
2026-05-06 07:43 51.56243 19.13354 1941 ft 214 kts 194°
2026-05-06 07:43 51.54855 19.13952 2083 ft 226 kts 136°
2026-05-06 07:43 51.54139 19.16290 2010 ft 236 kts 116°
2026-05-06 07:44 51.53636 19.18785 1887 ft 236 kts 110°
2026-05-06 07:44 51.53192 19.21313 1757 ft 234 kts 109°
2026-05-06 07:44 51.52945 19.23836 1663 ft 226 kts 56°
2026-05-06 07:44 51.54015 19.23594 1251 ft 165 kts 294°
2026-05-06 07:45 51.54398 19.21930 901 ft 152 kts 283°
2026-05-06 07:45 51.54723 19.20196 672 ft 155 kts 282°
2026-05-06 07:45 51.54977 19.18877 633 ft 79 kts 289°
2026-05-06 07:45 51.55045 19.18567 638 ft 4 kts 327°
2026-05-06 07:46 51.55133 19.18601 636 ft 23 kts 26°
2026-05-06 07:46 51.55299 19.18733 632 ft 18 kts 15°
2026-05-06 07:46 51.55379 19.18544 632 ft 28 kts 289°
2026-05-06 07:46 51.55443 19.18210 641 ft 32 kts 288°
2026-05-06 07:47 51.55483 19.18013 633 ft 16 kts 287°
2026-05-06 07:47 51.55521 19.17815 636 ft 24 kts 288°
2026-05-06 07:47 51.55585 19.17500 633 ft 32 kts 290°
2026-05-06 07:47 51.55648 19.17167 636 ft 30 kts 288°
2026-05-06 07:48 51.55708 19.16852 636 ft 29 kts 287°
2026-05-06 07:48 51.55769 19.16551 632 ft 28 kts 287°
2026-05-06 07:48 51.55799 19.16301 639 ft 14 kts 235°
2026-05-06 07:48 51.55737 19.16254 632 ft 13 kts 187°
2026-05-06 07:49 51.55673 19.16225 632 ft 5 kts 256°